Time;durP1;ratioP1;P1;durP2;ratioP2;P2;SDS_P1;SDS_P2;PMS_P1;PMS_P2;Temp;Humidity;BMP_temperature;BMP_pressure;BME280_temperature;BME280_humidity;BME280_pressure;Samples;Min_cycle;Max_cycle;Signal;HPM_P1;HPM_P2
2022/11/21 00:04:30;;;;;;;73.10;48.40;;;;;;;-7.86;78.87;98715.52;420597;1292;142535;-65
2022/11/21 00:14:36;;;;;;;73.20;50.70;;;;;;;-7.85;79.12;98711.09;421886;1293;140857;-63
2022/11/21 00:24:42;;;;;;;61.10;44.10;;;;;;;-7.92;79.06;98701.59;417011;1295;210132;-64
2022/11/21 00:34:48;;;;;;;71.60;48.00;;;;;;;-8.12;79.16;98696.23;418612;1293;144236;-64
2022/11/21 00:44:54;;;;;;;106.40;66.30;;;;;;;-8.35;79.34;98694.91;414965;1301;141752;-63
2022/11/21 00:54:59;;;;;;;87.10;58.10;;;;;;;-8.50;80.06;98678.83;421858;1293;142695;-64
2022/11/21 01:05:06;;;;;;;69.20;44.60;;;;;;;-8.39;80.86;98679.98;419229;1302;143072;-62
2022/11/21 01:15:12;;;;;;;63.70;43.20;;;;;;;-8.17;81.78;98673.83;422796;1293;142099;-62
2022/11/21 01:25:18;;;;;;;64.90;45.40;;;;;;;-8.01;82.16;98669.86;416144;1296;142645;-64
2022/11/21 01:35:24;;;;;;;66.00;43.50;;;;;;;-8.08;81.99;98663.59;415867;1305;146464;-61
2022/11/21 01:45:54;;;;;;;61.40;40.70;;;;;;;-8.20;81.54;98666.36;417223;1291;142850;-65
2022/11/21 01:56:00;;;;;;;64.60;45.10;;;;;;;-8.36;80.92;98662.48;419121;1289;142351;-62
2022/11/21 02:06:09;;;;;;;65.30;41.10;;;;;;;-8.48;80.56;98671.17;425210;1291;187692;-63
2022/11/21 02:16:15;;;;;;;62.10;41.10;;;;;;;-8.58;80.34;98671.05;416824;1285;143615;-63
2022/11/21 02:26:21;;;;;;;67.80;40.70;;;;;;;-8.61;80.98;98662.90;420126;1289;142697;-62
2022/11/21 02:36:39;;;;;;;61.50;39.50;;;;;;;-8.56;81.46;98663.41;418507;1289;142035;-63
2022/11/21 02:46:50;;;;;;;56.80;38.00;;;;;;;-8.66;80.79;98666.29;424471;1289;142348;-62
2022/11/21 02:56:56;;;;;;;59.90;38.20;;;;;;;-8.79;80.13;98663.43;422722;1296;143955;-64
2022/11/21 03:07:02;;;;;;;57.40;39.40;;;;;;;-8.85;80.08;98651.38;424883;1291;142668;-63
2022/11/21 03:17:07;;;;;;;43.00;33.80;;;;;;;-8.61;82.03;98651.53;422770;1294;142813;-63
2022/11/21 03:27:13;;;;;;;50.80;33.40;;;;;;;-8.36;83.19;98656.21;418394;1294;143769;-63
2022/11/21 03:37:19;;;;;;;51.90;32.60;;;;;;;-8.33;83.42;98644.98;428646;1296;146791;-63
2022/11/21 03:47:26;;;;;;;54.10;34.20;;;;;;;-8.31;83.54;98624.61;423386;1293;142564;-62
2022/11/21 03:57:31;;;;;;;44.20;28.80;;;;;;;-8.35;83.37;98608.50;416560;1296;142084;-62
2022/11/21 04:07:37;;;;;;;40.50;26.90;;;;;;;-8.28;83.86;98589.80;419353;1295;142354;-63
2022/11/21 04:17:43;;;;;;;37.90;26.50;;;;;;;-8.06;84.74;98584.94;417876;1296;142378;-63
2022/11/21 04:27:48;;;;;;;39.40;27.30;;;;;;;-7.94;84.80;98579.11;425163;1293;142564;-64
2022/11/21 04:37:54;;;;;;;39.10;27.40;;;;;;;-8.18;83.70;98587.55;419710;1285;142998;-63
2022/11/21 04:48:00;;;;;;;36.90;23.30;;;;;;;-8.10;84.42;98570.52;423841;1289;143060;-63
2022/11/21 04:58:05;;;;;;;42.50;28.80;;;;;;;-7.83;85.45;98553.91;422206;1280;142550;-63
2022/11/21 05:08:11;;;;;;;40.20;26.70;;;;;;;-7.62;85.77;98544.41;421364;1295;141343;-63
2022/11/21 05:18:16;;;;;;;38.60;27.20;;;;;;;-7.41;86.33;98532.02;420443;1286;142212;-63
2022/11/21 05:28:22;;;;;;;26.60;20.70;;;;;;;-7.17;86.47;98535.55;428550;1288;142431;-64
2022/11/21 05:38:28;;;;;;;34.80;22.90;;;;;;;-6.99;86.45;98515.48;425658;1289;142144;-64
2022/11/21 05:48:35;;;;;;;34.80;24.70;;;;;;;-6.81;86.62;98519.04;433800;1289;142176;-63
2022/11/21 05:58:41;;;;;;;32.60;24.30;;;;;;;-6.89;86.03;98535.64;419507;1288;142578;-64
2022/11/21 06:08:47;;;;;;;30.50;23.00;;;;;;;-6.98;86.08;98523.45;432419;1288;142118;-63
2022/11/21 06:18:53;;;;;;;36.10;23.40;;;;;;;-6.78;86.25;98504.70;434440;1289;143623;-63
2022/11/21 06:29:03;;;;;;;33.70;21.30;;;;;;;-6.34;86.48;98507.59;434472;1289;143293;-64
2022/11/21 06:39:07;;;;;;;;;;;;;;;-5.82;86.46;98506.85;425414;1289;142722;-64
2022/11/21 06:49:13;;;;;;;31.60;20.50;;;;;;;-5.17;86.04;98499.66;434832;1288;128003;-64
2022/11/21 06:59:17;;;;;;;;;;;;;;;-4.55;85.55;98508.08;434469;1289;141500;-62
2022/11/21 07:09:23;;;;;;;30.30;21.40;;;;;;;-3.24;84.97;98514.17;433972;1290;129753;-63
2022/11/21 07:19:43;;;;;;;31.90;20.10;;;;;;;-0.72;82.38;98521.48;434662;1287;202483;-63
2022/11/21 07:29:50;;;;;;;32.70;22.70;;;;;;;0.23;79.99;98508.05;433914;1288;142203;-63
2022/11/21 07:39:56;;;;;;;30.60;22.80;;;;;;;1.01;77.42;98496.67;434614;1287;141627;-63
2022/11/21 07:50:01;;;;;;;31.00;20.80;;;;;;;0.43;76.62;98484.57;434655;1289;140955;-63
2022/11/21 08:00:09;;;;;;;32.60;21.70;;;;;;;-0.56;76.68;98464.73;432264;1289;141090;-63
2022/11/21 08:10:16;;;;;;;30.90;19.60;;;;;;;-1.22;77.53;98440.23;434680;1278;141546;-63
2022/11/21 08:20:21;;;;;;;30.00;19.90;;;;;;;-0.56;77.81;98426.19;434732;1285;141839;-62
2022/11/21 08:30:27;;;;;;;30.20;23.20;;;;;;;2.22;75.55;98418.16;433995;1288;144877;-63
2022/11/21 08:40:34;;;;;;;28.50;23.70;;;;;;;4.24;72.35;98405.16;434744;1287;141870;-64
2022/11/21 08:50:40;;;;;;;30.10;23.30;;;;;;;4.14;69.40;98408.29;434071;1284;141732;-64
2022/11/21 09:00:45;;;;;;;30.90;22.80;;;;;;;2.58;70.35;98411.50;421248;1289;141495;-64
2022/11/21 09:10:51;;;;;;;31.80;21.90;;;;;;;1.65;71.78;98412.29;431624;1288;158428;-64
2022/11/21 09:20:57;;;;;;;35.00;23.90;;;;;;;1.02;72.72;98413.36;431655;1285;143411;-63
2022/11/21 09:31:04;;;;;;;35.50;25.00;;;;;;;0.39;73.58;98408.95;434102;1288;141305;-63
2022/11/21 09:51:48;;;;;;;37.70;24.50;;;;;;;-0.19;76.01;98375.33;434266;1287;194564;-63
2022/11/21 10:01:54;;;;;;;37.50;25.90;;;;;;;-0.21;76.63;98363.20;430469;1285;143430;-64
2022/11/21 10:22:43;;;;;;;37.40;27.20;;;;;;;-0.01;78.02;98349.66;434701;1289;142227;-64
2022/11/21 10:32:52;;;;;;;38.10;25.20;;;;;;;0.13;78.49;98348.55;433918;1282;142707;-63
2022/11/21 10:45:14;;;;;;;39.80;27.10;;;;;;;0.37;78.82;98343.83;434570;1289;142538;-63
2022/11/21 11:04:08;;;;;;;39.00;26.60;;;;;;;0.97;79.13;98324.34;424631;1290;209995;-64
2022/11/21 11:14:34;;;;;;;40.90;27.40;;;;;;;1.25;79.14;98322.20;429862;1279;142623;-64
2022/11/21 11:24:52;;;;;;;45.50;31.40;;;;;;;1.28;79.30;98312.77;417623;1280;211700;-64
2022/11/21 11:35:17;;;;;;;46.10;31.50;;;;;;;1.36;79.67;98309.62;425349;1272;140899;-64
2022/11/21 11:56:08;;;;;;;39.40;26.40;;;;;;;2.02;79.73;98310.46;434445;1288;143254;-64
2022/11/21 12:06:19;;;;;;;42.30;29.10;;;;;;;2.10;79.52;98313.34;433957;1288;141438;-63
2022/11/21 12:16:26;;;;;;;41.00;28.90;;;;;;;2.04;79.82;98318.14;434560;1289;141442;-64
2022/11/21 12:26:48;;;;;;;39.40;28.40;;;;;;;2.02;80.15;98319.64;434657;1288;142619;-64
2022/11/21 12:37:02;;;;;;;44.30;29.10;;;;;;;2.01;80.35;98315.89;434434;1282;197829;-64
2022/11/21 12:47:24;;;;;;;42.40;28.40;;;;;;;1.90;80.48;98311.02;434627;1288;141795;-63
2022/11/21 12:57:39;;;;;;;40.10;30.10;;;;;;;1.73;80.88;98304.47;429664;1282;187964;-64
2022/11/21 13:07:46;;;;;;;41.70;28.20;;;;;;;1.62;81.22;98299.63;434661;1288;154263;-64
2022/11/21 13:17:56;;;;;;;46.90;30.10;;;;;;;1.64;81.57;98301.42;433872;1282;142399;-63
2022/11/21 13:28:30;;;;;;;45.00;30.60;;;;;;;1.71;81.43;98304.20;433819;1282;141946;-65
2022/11/21 13:39:07;;;;;;;43.90;31.60;;;;;;;1.71;81.73;98311.13;434692;1273;142243;-63
2022/11/21 13:49:21;;;;;;;43.60;29.00;;;;;;;1.63;82.05;98311.14;431880;1281;207021;-62
2022/11/21 13:59:42;;;;;;;49.30;32.20;;;;;;;1.66;82.26;98317.35;418034;1287;145586;-64
2022/11/21 14:09:50;;;;;;;42.10;29.00;;;;;;;1.70;82.41;98313.76;434128;1287;197026;-64
2022/11/21 14:19:59;;;;;;;44.40;30.20;;;;;;;1.69;82.33;98316.37;434628;1288;144094;-64
2022/11/21 14:30:05;;;;;;;48.90;34.00;;;;;;;1.68;82.60;98316.95;433009;1287;142662;-64
2022/11/21 14:40:20;;;;;;;50.10;34.40;;;;;;;1.72;82.92;98321.40;434634;1289;142234;-64
2022/11/21 14:50:28;;;;;;;52.50;33.90;;;;;;;1.76;82.78;98313.79;434437;1295;142217;-64
2022/11/21 15:00:34;;;;;;;47.50;30.10;;;;;;;1.76;82.80;98315.01;433800;1283;142473;-63
2022/11/21 15:11:02;;;;;;;50.40;31.50;;;;;;;1.79;82.95;98319.33;434681;1287;142475;-63
2022/11/21 15:21:12;;;;;;;43.00;29.50;;;;;;;1.75;83.11;98324.88;432417;1288;141689;-63
2022/11/21 15:31:22;;;;;;;52.90;36.50;;;;;;;1.68;83.44;98324.52;430855;1288;141562;-64
2022/11/21 15:41:30;;;;;;;60.00;35.80;;;;;;;1.69;83.64;98322.08;434715;1288;143715;-64
2022/11/21 15:51:38;;;;;;;47.70;34.20;;;;;;;1.76;83.78;98323.11;419834;1287;142524;-63
2022/11/21 16:02:04;;;;;;;55.70;37.40;;;;;;;1.76;83.96;98322.63;434616;1285;144691;-65
2022/11/21 16:12:10;;;;;;;51.00;35.10;;;;;;;1.74;84.34;98311.52;429114;1288;141058;-65
2022/11/21 16:22:16;;;;;;;55.10;38.80;;;;;;;1.64;84.57;98312.31;434599;1280;143272;-65
2022/11/21 16:32:24;;;;;;;55.50;38.40;;;;;;;1.65;85.06;98313.98;434584;1282;141960;-63
2022/11/21 16:42:31;;;;;;;58.70;41.70;;;;;;;1.70;85.27;98324.08;433783;1289;143537;-63
2022/11/21 16:52:36;;;;;;;57.70;39.20;;;;;;;1.76;85.44;98324.31;432793;1286;142424;-63
2022/11/21 17:02:43;;;;;;;73.00;49.40;;;;;;;1.78;85.46;98321.82;422742;1279;143914;-64
2022/11/21 17:12:48;;;;;;;76.00;51.30;;;;;;;1.77;85.43;98318.75;434711;1286;142574;-64
2022/11/21 17:22:54;;;;;;;81.60;57.70;;;;;;;1.75;85.47;98317.98;434661;1288;142730;-63
2022/11/21 17:33:01;;;;;;;92.30;60.60;;;;;;;1.72;85.50;98316.06;433884;1282;142504;-64
2022/11/21 17:43:06;;;;;;;99.20;64.40;;;;;;;1.75;85.52;98315.41;434591;1292;144086;-63
2022/11/21 17:53:12;;;;;;;86.10;62.20;;;;;;;1.72;85.75;98320.20;434564;1288;141528;-62
2022/11/21 18:03:18;;;;;;;101.10;65.40;;;;;;;1.62;85.73;98321.18;433959;1289;143494;-63
2022/11/21 18:13:24;;;;;;;92.00;60.70;;;;;;;1.56;85.84;98333.70;434639;1289;142479;-64
2022/11/21 18:23:30;;;;;;;73.80;50.50;;;;;;;1.62;85.99;98348.60;434582;1285;143113;-63
2022/11/21 18:33:36;;;;;;;76.30;52.40;;;;;;;1.72;86.18;98354.38;433991;1286;142953;-63
2022/11/21 18:43:43;;;;;;;74.40;49.80;;;;;;;1.77;86.27;98350.33;434595;1293;142526;-63
2022/11/21 18:53:53;;;;;;;74.20;50.40;;;;;;;1.67;86.31;98359.09;433855;1285;141817;-63
2022/11/21 19:03:59;;;;;;;69.00;48.00;;;;;;;1.50;86.76;98365.23;434480;1287;145422;-65
2022/11/21 19:14:05;;;;;;;55.60;34.80;;;;;;;1.48;87.39;98369.80;434475;1285;143624;-64
2022/11/21 19:24:13;;;;;;;51.60;34.70;;;;;;;1.45;87.82;98375.63;434014;1285;183102;-64
2022/11/21 19:34:19;;;;;;;48.20;30.50;;;;;;;1.48;88.28;98386.70;431121;1293;146311;-64
2022/11/21 19:44:25;;;;;;;43.50;27.90;;;;;;;1.46;88.21;98398.14;434797;1291;142846;-64
2022/11/21 19:54:31;;;;;;;46.50;28.80;;;;;;;1.37;88.00;98398.74;418002;1286;142038;-64
2022/11/21 20:04:37;;;;;;;50.10;32.60;;;;;;;1.27;88.09;98410.55;426215;1279;143092;-64
2022/11/21 20:14:42;;;;;;;53.70;33.20;;;;;;;1.19;88.20;98419.38;433900;1285;142667;-64
2022/11/21 20:24:48;;;;;;;48.70;31.10;;;;;;;0.99;88.14;98430.41;434835;1289;142748;-64
2022/11/21 20:34:56;;;;;;;46.70;28.50;;;;;;;0.86;88.31;98437.33;434724;1288;144211;-64
2022/11/21 20:45:02;;;;;;;39.60;27.30;;;;;;;0.74;88.13;98449.93;434062;1288;196604;-63
2022/11/21 20:55:29;;;;;;;43.00;28.00;;;;;;;0.60;88.08;98459.93;434608;1285;142537;-64
2022/11/21 21:05:35;;;;;;;46.20;28.60;;;;;;;0.36;87.94;98469.86;427834;1289;142024;-64
2022/11/21 21:15:41;;;;;;;52.40;29.30;;;;;;;0.34;88.18;98484.76;434270;1293;211773;-65
2022/11/21 21:25:47;;;;;;;49.50;28.50;;;;;;;0.34;88.13;98482.54;434690;1288;142362;-64
2022/11/21 21:35:52;;;;;;;49.10;30.50;;;;;;;0.29;88.04;98476.18;434032;1285;142834;-64
2022/11/21 21:46:04;;;;;;;53.30;30.70;;;;;;;0.17;88.01;98479.20;434818;1279;142677;-64
2022/11/21 21:56:10;;;;;;;54.40;30.20;;;;;;;0.07;87.88;98474.25;434649;1288;144690;-64
2022/11/21 22:06:17;;;;;;;46.40;29.20;;;;;;;0.04;87.87;98474.38;433773;1279;142781;-64
2022/11/21 22:16:24;;;;;;;48.00;29.10;;;;;;;0.04;87.94;98469.22;434815;1287;143256;-63
2022/11/21 22:26:30;;;;;;;54.20;31.00;;;;;;;-0.02;88.18;98456.20;434929;1289;186316;-64
2022/11/21 22:36:36;;;;;;;57.50;30.90;;;;;;;-0.14;87.89;98464.05;434121;1285;146188;-63
2022/11/21 22:46:41;;;;;;;48.00;28.60;;;;;;;-0.20;88.09;98457.73;434818;1294;143388;-63
2022/11/21 22:56:47;;;;;;;50.70;28.20;;;;;;;-0.27;88.29;98455.25;433981;1288;145918;-64
2022/11/21 23:06:53;;;;;;;54.70;33.00;;;;;;;-0.25;88.44;98458.29;434752;1285;142538;-63
2022/11/21 23:16:59;;;;;;;48.60;29.40;;;;;;;-0.27;88.34;98456.98;434849;1285;145248;-64
2022/11/21 23:27:05;;;;;;;41.50;24.40;;;;;;;-0.23;88.70;98446.69;434106;1294;142000;-63
2022/11/21 23:37:11;;;;;;;43.80;27.20;;;;;;;-0.18;88.51;98442.86;434939;1289;142780;-64
2022/11/21 23:47:16;;;;;;;49.70;27.30;;;;;;;-0.19;88.56;98437.41;434878;1289;142938;-63
2022/11/21 23:57:22;;;;;;;57.50;31.10;;;;;;;-0.34;88.21;98426.42;434098;1281;143483;-63
